sensor_id;sensor_type;location;lat;lon;timestamp;P1;durP1;ratioP1;P2;durP2;ratioP2
21142;SDS011;66437;46.908;15.216;2023-01-16T00:01:50;1.50;;;1.20;;
21142;SDS011;66437;46.908;15.216;2023-01-16T00:04:16;1.70;;;1.50;;
21142;SDS011;66437;46.908;15.216;2023-01-16T00:06:41;1.50;;;1.40;;
21142;SDS011;66437;46.908;15.216;2023-01-16T00:09:07;1.80;;;1.30;;
21142;SDS011;66437;46.908;15.216;2023-01-16T00:11:33;1.60;;;1.40;;
21142;SDS011;66437;46.908;15.216;2023-01-16T00:13:58;1.37;;;1.27;;
21142;SDS011;66437;46.908;15.216;2023-01-16T00:16:25;1.37;;;1.27;;
21142;SDS011;66437;46.908;15.216;2023-01-16T00:18:50;0.97;;;0.97;;
21142;SDS011;66437;46.908;15.216;2023-01-16T00:21:16;1.50;;;1.40;;
21142;SDS011;66437;46.908;15.216;2023-01-16T00:23:42;1.20;;;1.07;;
21142;SDS011;66437;46.908;15.216;2023-01-16T00:26:07;1.63;;;1.40;;
21142;SDS011;66437;46.908;15.216;2023-01-16T00:28:35;1.20;;;1.10;;
21142;SDS011;66437;46.908;15.216;2023-01-16T00:31:03;2.10;;;1.27;;
21142;SDS011;66437;46.908;15.216;2023-01-16T00:33:29;1.50;;;1.30;;
21142;SDS011;66437;46.908;15.216;2023-01-16T00:35:55;1.03;;;0.90;;
21142;SDS011;66437;46.908;15.216;2023-01-16T00:38:20;2.10;;;1.30;;
21142;SDS011;66437;46.908;15.216;2023-01-16T00:40:45;1.10;;;1.00;;
21142;SDS011;66437;46.908;15.216;2023-01-16T00:43:11;1.53;;;1.00;;
21142;SDS011;66437;46.908;15.216;2023-01-16T00:45:36;0.70;;;0.60;;
21142;SDS011;66437;46.908;15.216;2023-01-16T00:48:02;0.83;;;0.83;;
21142;SDS011;66437;46.908;15.216;2023-01-16T00:50:28;1.10;;;0.90;;
21142;SDS011;66437;46.908;15.216;2023-01-16T00:52:53;1.87;;;0.83;;
21142;SDS011;66437;46.908;15.216;2023-01-16T00:55:18;1.17;;;0.97;;
21142;SDS011;66437;46.908;15.216;2023-01-16T00:57:44;0.77;;;0.77;;
21142;SDS011;66437;46.908;15.216;2023-01-16T01:00:09;0.80;;;0.73;;
21142;SDS011;66437;46.908;15.216;2023-01-16T01:02:35;1.03;;;0.80;;
21142;SDS011;66437;46.908;15.216;2023-01-16T01:05:00;1.17;;;1.07;;
21142;SDS011;66437;46.908;15.216;2023-01-16T01:07:26;0.87;;;0.70;;
21142;SDS011;66437;46.908;15.216;2023-01-16T01:09:51;1.07;;;0.90;;
21142;SDS011;66437;46.908;15.216;2023-01-16T01:12:16;0.70;;;0.70;;
21142;SDS011;66437;46.908;15.216;2023-01-16T01:14:42;1.07;;;0.70;;
21142;SDS011;66437;46.908;15.216;2023-01-16T01:17:07;0.60;;;0.60;;
21142;SDS011;66437;46.908;15.216;2023-01-16T01:19:33;0.60;;;0.50;;
21142;SDS011;66437;46.908;15.216;2023-01-16T01:21:58;1.07;;;0.90;;
21142;SDS011;66437;46.908;15.216;2023-01-16T01:24:24;0.87;;;0.70;;
21142;SDS011;66437;46.908;15.216;2023-01-16T01:26:49;0.70;;;0.70;;
21142;SDS011;66437;46.908;15.216;2023-01-16T01:29:15;0.60;;;0.60;;
21142;SDS011;66437;46.908;15.216;2023-01-16T01:31:40;0.63;;;0.60;;
21142;SDS011;66437;46.908;15.216;2023-01-16T01:34:05;0.70;;;0.70;;
21142;SDS011;66437;46.908;15.216;2023-01-16T01:36:31;0.90;;;0.70;;
21142;SDS011;66437;46.908;15.216;2023-01-16T01:38:56;0.67;;;0.67;;
21142;SDS011;66437;46.908;15.216;2023-01-16T01:41:22;0.67;;;0.63;;
21142;SDS011;66437;46.908;15.216;2023-01-16T01:49:29;1.13;;;0.60;;
21142;SDS011;66437;46.908;15.216;2023-01-16T01:51:56;0.63;;;0.63;;
21142;SDS011;66437;46.908;15.216;2023-01-16T01:54:30;0.60;;;0.53;;
21142;SDS011;66437;46.908;15.216;2023-01-16T01:57:02;0.50;;;0.40;;
21142;SDS011;66437;46.908;15.216;2023-01-16T01:59:30;0.97;;;0.50;;
21142;SDS011;66437;46.908;15.216;2023-01-16T02:01:57;0.50;;;0.50;;
21142;SDS011;66437;46.908;15.216;2023-01-16T02:04:25;1.13;;;0.70;;
21142;SDS011;66437;46.908;15.216;2023-01-16T02:06:53;1.67;;;0.70;;
21142;SDS011;66437;46.908;15.216;2023-01-16T02:09:20;0.90;;;0.70;;
21142;SDS011;66437;46.908;15.216;2023-01-16T02:11:48;0.60;;;0.50;;
21142;SDS011;66437;46.908;15.216;2023-01-16T02:14:15;0.70;;;0.70;;
21142;SDS011;66437;46.908;15.216;2023-01-16T02:16:41;0.40;;;0.40;;
21142;SDS011;66437;46.908;15.216;2023-01-16T02:22:02;0.90;;;0.63;;
21142;SDS011;66437;46.908;15.216;2023-01-16T02:24:44;0.50;;;0.50;;
21142;SDS011;66437;46.908;15.216;2023-01-16T02:32:21;0.63;;;0.50;;
21142;SDS011;66437;46.908;15.216;2023-01-16T02:35:12;0.70;;;0.50;;
21142;SDS011;66437;46.908;15.216;2023-01-16T02:37:53;0.80;;;0.80;;
21142;SDS011;66437;46.908;15.216;2023-01-16T02:42:45;0.40;;;0.40;;
21142;SDS011;66437;46.908;15.216;2023-01-16T02:50:26;0.40;;;0.40;;
21142;SDS011;66437;46.908;15.216;2023-01-16T02:55:29;0.53;;;0.53;;
21142;SDS011;66437;46.908;15.216;2023-01-16T02:57:58;0.60;;;0.60;;
21142;SDS011;66437;46.908;15.216;2023-01-16T03:00:24;0.90;;;0.60;;
21142;SDS011;66437;46.908;15.216;2023-01-16T03:02:50;0.40;;;0.40;;
21142;SDS011;66437;46.908;15.216;2023-01-16T03:05:15;0.70;;;0.70;;
21142;SDS011;66437;46.908;15.216;2023-01-16T03:13:03;0.50;;;0.40;;
21142;SDS011;66437;46.908;15.216;2023-01-16T03:15:39;0.40;;;0.40;;
21142;SDS011;66437;46.908;15.216;2023-01-16T03:23:12;1.37;;;0.50;;
21142;SDS011;66437;46.908;15.216;2023-01-16T03:28:07;0.60;;;0.60;;
21142;SDS011;66437;46.908;15.216;2023-01-16T03:30:48;0.50;;;0.40;;
21142;SDS011;66437;46.908;15.216;2023-01-16T03:36:01;0.40;;;0.40;;
21142;SDS011;66437;46.908;15.216;2023-01-16T03:38:29;0.40;;;0.40;;
21142;SDS011;66437;46.908;15.216;2023-01-16T03:40:56;0.83;;;0.50;;
21142;SDS011;66437;46.908;15.216;2023-01-16T03:43:32;0.70;;;0.40;;
21142;SDS011;66437;46.908;15.216;2023-01-16T03:46:09;0.47;;;0.40;;
21142;SDS011;66437;46.908;15.216;2023-01-16T03:48:49;0.40;;;0.30;;
21142;SDS011;66437;46.908;15.216;2023-01-16T03:51:19;0.50;;;0.30;;
21142;SDS011;66437;46.908;15.216;2023-01-16T03:53:47;0.40;;;0.30;;
21142;SDS011;66437;46.908;15.216;2023-01-16T03:56:19;1.03;;;0.40;;
21142;SDS011;66437;46.908;15.216;2023-01-16T03:58:45;0.40;;;0.33;;
21142;SDS011;66437;46.908;15.216;2023-01-16T04:03:43;0.40;;;0.40;;
21142;SDS011;66437;46.908;15.216;2023-01-16T04:06:12;0.57;;;0.37;;
21142;SDS011;66437;46.908;15.216;2023-01-16T04:08:39;0.40;;;0.30;;
21142;SDS011;66437;46.908;15.216;2023-01-16T04:11:07;0.40;;;0.30;;
21142;SDS011;66437;46.908;15.216;2023-01-16T04:13:34;0.50;;;0.40;;
21142;SDS011;66437;46.908;15.216;2023-01-16T04:16:02;0.57;;;0.47;;
21142;SDS011;66437;46.908;15.216;2023-01-16T04:18:33;0.60;;;0.40;;
21142;SDS011;66437;46.908;15.216;2023-01-16T04:20:59;0.40;;;0.30;;
21142;SDS011;66437;46.908;15.216;2023-01-16T04:23:24;0.40;;;0.40;;
21142;SDS011;66437;46.908;15.216;2023-01-16T04:25:50;0.40;;;0.30;;
21142;SDS011;66437;46.908;15.216;2023-01-16T04:28:16;0.40;;;0.30;;
21142;SDS011;66437;46.908;15.216;2023-01-16T04:30:41;0.43;;;0.40;;
21142;SDS011;66437;46.908;15.216;2023-01-16T04:33:06;0.40;;;0.30;;
21142;SDS011;66437;46.908;15.216;2023-01-16T04:35:32;0.50;;;0.43;;
21142;SDS011;66437;46.908;15.216;2023-01-16T04:37:58;1.17;;;0.40;;
21142;SDS011;66437;46.908;15.216;2023-01-16T04:40:23;0.50;;;0.40;;
21142;SDS011;66437;46.908;15.216;2023-01-16T04:42:49;0.40;;;0.40;;
21142;SDS011;66437;46.908;15.216;2023-01-16T04:45:14;0.37;;;0.30;;
21142;SDS011;66437;46.908;15.216;2023-01-16T04:47:40;0.40;;;0.30;;
21142;SDS011;66437;46.908;15.216;2023-01-16T04:50:05;0.50;;;0.37;;
21142;SDS011;66437;46.908;15.216;2023-01-16T04:52:31;0.40;;;0.30;;
21142;SDS011;66437;46.908;15.216;2023-01-16T04:54:57;0.50;;;0.50;;
21142;SDS011;66437;46.908;15.216;2023-01-16T04:57:22;0.47;;;0.33;;
21142;SDS011;66437;46.908;15.216;2023-01-16T04:59:47;0.40;;;0.37;;
21142;SDS011;66437;46.908;15.216;2023-01-16T05:02:13;0.40;;;0.30;;
21142;SDS011;66437;46.908;15.216;2023-01-16T05:04:38;0.60;;;0.30;;
21142;SDS011;66437;46.908;15.216;2023-01-16T05:07:03;0.50;;;0.40;;
21142;SDS011;66437;46.908;15.216;2023-01-16T05:09:29;2.00;;;0.30;;
21142;SDS011;66437;46.908;15.216;2023-01-16T05:11:54;0.30;;;0.30;;
21142;SDS011;66437;46.908;15.216;2023-01-16T05:14:20;0.40;;;0.30;;
21142;SDS011;66437;46.908;15.216;2023-01-16T05:16:45;0.30;;;0.30;;
21142;SDS011;66437;46.908;15.216;2023-01-16T05:19:11;0.50;;;0.33;;
21142;SDS011;66437;46.908;15.216;2023-01-16T05:21:36;0.40;;;0.30;;
21142;SDS011;66437;46.908;15.216;2023-01-16T05:24:02;0.43;;;0.30;;
21142;SDS011;66437;46.908;15.216;2023-01-16T05:26:28;0.40;;;0.40;;
21142;SDS011;66437;46.908;15.216;2023-01-16T05:28:53;0.77;;;0.30;;
21142;SDS011;66437;46.908;15.216;2023-01-16T05:31:18;0.40;;;0.20;;
21142;SDS011;66437;46.908;15.216;2023-01-16T05:33:44;0.30;;;0.30;;
21142;SDS011;66437;46.908;15.216;2023-01-16T05:36:09;0.40;;;0.40;;
21142;SDS011;66437;46.908;15.216;2023-01-16T05:38:35;0.70;;;0.53;;
21142;SDS011;66437;46.908;15.216;2023-01-16T05:41:00;0.50;;;0.40;;
21142;SDS011;66437;46.908;15.216;2023-01-16T05:43:25;0.40;;;0.40;;
21142;SDS011;66437;46.908;15.216;2023-01-16T05:45:51;0.40;;;0.30;;
21142;SDS011;66437;46.908;15.216;2023-01-16T05:48:17;0.70;;;0.50;;
21142;SDS011;66437;46.908;15.216;2023-01-16T05:50:42;0.40;;;0.30;;
21142;SDS011;66437;46.908;15.216;2023-01-16T05:53:07;0.50;;;0.40;;
21142;SDS011;66437;46.908;15.216;2023-01-16T05:55:38;0.40;;;0.30;;
21142;SDS011;66437;46.908;15.216;2023-01-16T05:58:04;0.50;;;0.40;;
21142;SDS011;66437;46.908;15.216;2023-01-16T06:00:29;0.40;;;0.30;;
21142;SDS011;66437;46.908;15.216;2023-01-16T06:02:55;0.40;;;0.30;;
21142;SDS011;66437;46.908;15.216;2023-01-16T06:05:20;0.40;;;0.30;;
21142;SDS011;66437;46.908;15.216;2023-01-16T06:07:46;0.40;;;0.30;;
21142;SDS011;66437;46.908;15.216;2023-01-16T06:10:11;0.40;;;0.30;;
21142;SDS011;66437;46.908;15.216;2023-01-16T06:12:37;0.40;;;0.30;;
21142;SDS011;66437;46.908;15.216;2023-01-16T06:15:02;0.60;;;0.30;;
21142;SDS011;66437;46.908;15.216;2023-01-16T06:17:28;0.50;;;0.40;;
21142;SDS011;66437;46.908;15.216;2023-01-16T06:19:53;0.70;;;0.30;;
21142;SDS011;66437;46.908;15.216;2023-01-16T06:22:19;0.40;;;0.30;;
21142;SDS011;66437;46.908;15.216;2023-01-16T06:24:45;0.70;;;0.30;;
21142;SDS011;66437;46.908;15.216;2023-01-16T06:27:11;0.40;;;0.40;;
21142;SDS011;66437;46.908;15.216;2023-01-16T06:29:36;0.50;;;0.50;;
21142;SDS011;66437;46.908;15.216;2023-01-16T06:32:03;0.40;;;0.30;;
21142;SDS011;66437;46.908;15.216;2023-01-16T06:34:29;0.40;;;0.37;;
21142;SDS011;66437;46.908;15.216;2023-01-16T06:36:54;0.40;;;0.33;;
21142;SDS011;66437;46.908;15.216;2023-01-16T06:39:20;0.40;;;0.40;;
21142;SDS011;66437;46.908;15.216;2023-01-16T06:41:45;0.47;;;0.40;;
21142;SDS011;66437;46.908;15.216;2023-01-16T06:44:10;0.47;;;0.40;;
21142;SDS011;66437;46.908;15.216;2023-01-16T06:46:36;0.40;;;0.30;;
21142;SDS011;66437;46.908;15.216;2023-01-16T06:49:01;0.40;;;0.30;;
21142;SDS011;66437;46.908;15.216;2023-01-16T06:51:27;0.60;;;0.50;;
21142;SDS011;66437;46.908;15.216;2023-01-16T06:53:52;0.50;;;0.40;;
21142;SDS011;66437;46.908;15.216;2023-01-16T06:56:18;0.40;;;0.30;;
21142;SDS011;66437;46.908;15.216;2023-01-16T06:58:44;0.40;;;0.30;;
21142;SDS011;66437;46.908;15.216;2023-01-16T07:01:10;0.77;;;0.40;;
21142;SDS011;66437;46.908;15.216;2023-01-16T07:03:35;0.40;;;0.30;;
21142;SDS011;66437;46.908;15.216;2023-01-16T07:06:01;0.40;;;0.33;;
21142;SDS011;66437;46.908;15.216;2023-01-16T07:08:26;0.40;;;0.30;;
21142;SDS011;66437;46.908;15.216;2023-01-16T07:10:52;0.50;;;0.40;;
21142;SDS011;66437;46.908;15.216;2023-01-16T07:13:17;0.40;;;0.40;;
21142;SDS011;66437;46.908;15.216;2023-01-16T07:15:47;0.70;;;0.43;;
21142;SDS011;66437;46.908;15.216;2023-01-16T07:18:31;0.40;;;0.30;;
21142;SDS011;66437;46.908;15.216;2023-01-16T07:21:15;0.40;;;0.40;;
21142;SDS011;66437;46.908;15.216;2023-01-16T07:24:01;0.40;;;0.30;;
21142;SDS011;66437;46.908;15.216;2023-01-16T07:26:27;0.40;;;0.30;;
21142;SDS011;66437;46.908;15.216;2023-01-16T07:28:53;0.60;;;0.60;;
21142;SDS011;66437;46.908;15.216;2023-01-16T07:31:19;0.40;;;0.30;;
21142;SDS011;66437;46.908;15.216;2023-01-16T07:33:45;0.50;;;0.40;;
21142;SDS011;66437;46.908;15.216;2023-01-16T07:36:10;0.50;;;0.43;;
21142;SDS011;66437;46.908;15.216;2023-01-16T07:38:36;0.50;;;0.40;;
21142;SDS011;66437;46.908;15.216;2023-01-16T07:41:01;0.30;;;0.30;;
21142;SDS011;66437;46.908;15.216;2023-01-16T07:43:27;0.47;;;0.40;;
21142;SDS011;66437;46.908;15.216;2023-01-16T07:45:52;0.40;;;0.33;;
21142;SDS011;66437;46.908;15.216;2023-01-16T07:48:21;0.60;;;0.40;;
21142;SDS011;66437;46.908;15.216;2023-01-16T07:50:53;0.50;;;0.40;;
21142;SDS011;66437;46.908;15.216;2023-01-16T07:53:19;0.43;;;0.40;;
21142;SDS011;66437;46.908;15.216;2023-01-16T07:55:47;0.40;;;0.30;;
21142;SDS011;66437;46.908;15.216;2023-01-16T07:58:13;0.43;;;0.37;;
21142;SDS011;66437;46.908;15.216;2023-01-16T08:00:39;0.40;;;0.30;;
21142;SDS011;66437;46.908;15.216;2023-01-16T08:03:04;0.50;;;0.33;;
21142;SDS011;66437;46.908;15.216;2023-01-16T08:05:30;0.50;;;0.30;;
21142;SDS011;66437;46.908;15.216;2023-01-16T08:07:55;0.40;;;0.33;;
21142;SDS011;66437;46.908;15.216;2023-01-16T08:10:20;0.40;;;0.40;;
21142;SDS011;66437;46.908;15.216;2023-01-16T08:12:46;0.40;;;0.30;;
21142;SDS011;66437;46.908;15.216;2023-01-16T08:15:11;0.40;;;0.30;;
21142;SDS011;66437;46.908;15.216;2023-01-16T08:17:39;0.40;;;0.40;;
21142;SDS011;66437;46.908;15.216;2023-01-16T08:20:06;0.50;;;0.40;;
21142;SDS011;66437;46.908;15.216;2023-01-16T08:22:31;0.40;;;0.40;;
21142;SDS011;66437;46.908;15.216;2023-01-16T08:24:56;0.40;;;0.33;;
21142;SDS011;66437;46.908;15.216;2023-01-16T08:27:22;0.40;;;0.30;;
21142;SDS011;66437;46.908;15.216;2023-01-16T08:29:47;0.30;;;0.30;;
21142;SDS011;66437;46.908;15.216;2023-01-16T08:32:13;0.50;;;0.40;;
21142;SDS011;66437;46.908;15.216;2023-01-16T08:34:39;0.40;;;0.37;;
21142;SDS011;66437;46.908;15.216;2023-01-16T08:37:06;0.50;;;0.37;;
21142;SDS011;66437;46.908;15.216;2023-01-16T08:39:32;0.37;;;0.30;;
21142;SDS011;66437;46.908;15.216;2023-01-16T08:41:57;0.40;;;0.40;;
21142;SDS011;66437;46.908;15.216;2023-01-16T08:44:41;0.40;;;0.30;;
21142;SDS011;66437;46.908;15.216;2023-01-16T08:47:25;0.37;;;0.30;;
21142;SDS011;66437;46.908;15.216;2023-01-16T08:50:17;0.40;;;0.30;;
21142;SDS011;66437;46.908;15.216;2023-01-16T08:53:02;0.47;;;0.33;;
21142;SDS011;66437;46.908;15.216;2023-01-16T08:55:27;0.40;;;0.30;;
21142;SDS011;66437;46.908;15.216;2023-01-16T08:57:53;0.40;;;0.40;;
21142;SDS011;66437;46.908;15.216;2023-01-16T09:00:18;0.47;;;0.40;;
21142;SDS011;66437;46.908;15.216;2023-01-16T09:02:45;0.40;;;0.30;;
21142;SDS011;66437;46.908;15.216;2023-01-16T09:05:11;0.40;;;0.30;;
21142;SDS011;66437;46.908;15.216;2023-01-16T09:07:39;0.40;;;0.30;;
21142;SDS011;66437;46.908;15.216;2023-01-16T09:10:04;0.40;;;0.40;;
21142;SDS011;66437;46.908;15.216;2023-01-16T09:12:30;0.40;;;0.30;;
21142;SDS011;66437;46.908;15.216;2023-01-16T09:15:14;0.33;;;0.30;;
21142;SDS011;66437;46.908;15.216;2023-01-16T09:17:39;0.40;;;0.40;;
21142;SDS011;66437;46.908;15.216;2023-01-16T09:20:05;0.70;;;0.30;;
21142;SDS011;66437;46.908;15.216;2023-01-16T09:22:30;0.60;;;0.40;;
21142;SDS011;66437;46.908;15.216;2023-01-16T09:24:56;0.50;;;0.30;;
21142;SDS011;66437;46.908;15.216;2023-01-16T09:27:21;0.50;;;0.40;;
21142;SDS011;66437;46.908;15.216;2023-01-16T09:29:50;0.50;;;0.40;;
21142;SDS011;66437;46.908;15.216;2023-01-16T09:32:15;0.60;;;0.40;;
21142;SDS011;66437;46.908;15.216;2023-01-16T09:34:42;0.40;;;0.30;;
21142;SDS011;66437;46.908;15.216;2023-01-16T09:37:07;0.50;;;0.40;;
21142;SDS011;66437;46.908;15.216;2023-01-16T09:39:33;0.40;;;0.30;;
21142;SDS011;66437;46.908;15.216;2023-01-16T09:44:54;0.40;;;0.30;;
21142;SDS011;66437;46.908;15.216;2023-01-16T09:47:22;0.40;;;0.30;;
21142;SDS011;66437;46.908;15.216;2023-01-16T09:49:52;0.50;;;0.40;;
21142;SDS011;66437;46.908;15.216;2023-01-16T09:52:23;0.50;;;0.33;;
21142;SDS011;66437;46.908;15.216;2023-01-16T09:55:20;0.40;;;0.30;;
21142;SDS011;66437;46.908;15.216;2023-01-16T09:58:04;0.50;;;0.40;;
21142;SDS011;66437;46.908;15.216;2023-01-16T10:00:49;0.40;;;0.30;;
21142;SDS011;66437;46.908;15.216;2023-01-16T10:03:15;0.47;;;0.40;;
21142;SDS011;66437;46.908;15.216;2023-01-16T10:06:23;0.50;;;0.40;;
21142;SDS011;66437;46.908;15.216;2023-01-16T10:08:31;0.50;;;0.40;;
21142;SDS011;66437;46.908;15.216;2023-01-16T10:11:06;0.40;;;0.30;;
21142;SDS011;66437;46.908;15.216;2023-01-16T10:13:58;0.50;;;0.40;;
21142;SDS011;66437;46.908;15.216;2023-01-16T10:19:08;0.60;;;0.30;;
21142;SDS011;66437;46.908;15.216;2023-01-16T10:26:56;0.60;;;0.40;;
21142;SDS011;66437;46.908;15.216;2023-01-16T10:29:25;0.40;;;0.30;;
21142;SDS011;66437;46.908;15.216;2023-01-16T10:34:23;0.50;;;0.40;;
21142;SDS011;66437;46.908;15.216;2023-01-16T10:36:52;0.40;;;0.30;;
21142;SDS011;66437;46.908;15.216;2023-01-16T10:39:19;0.40;;;0.30;;
21142;SDS011;66437;46.908;15.216;2023-01-16T10:41:49;0.40;;;0.33;;
21142;SDS011;66437;46.908;15.216;2023-01-16T10:44:38;0.40;;;0.30;;
21142;SDS011;66437;46.908;15.216;2023-01-16T10:47:26;0.50;;;0.50;;
21142;SDS011;66437;46.908;15.216;2023-01-16T10:50:11;0.40;;;0.37;;
21142;SDS011;66437;46.908;15.216;2023-01-16T10:52:37;0.40;;;0.30;;
21142;SDS011;66437;46.908;15.216;2023-01-16T10:55:03;0.40;;;0.30;;
21142;SDS011;66437;46.908;15.216;2023-01-16T10:57:29;0.40;;;0.30;;
21142;SDS011;66437;46.908;15.216;2023-01-16T10:59:57;0.40;;;0.30;;
21142;SDS011;66437;46.908;15.216;2023-01-16T11:02:34;0.40;;;0.30;;
21142;SDS011;66437;46.908;15.216;2023-01-16T11:05:00;0.50;;;0.37;;
21142;SDS011;66437;46.908;15.216;2023-01-16T11:07:27;0.40;;;0.33;;
21142;SDS011;66437;46.908;15.216;2023-01-16T11:09:53;0.40;;;0.30;;
21142;SDS011;66437;46.908;15.216;2023-01-16T11:12:23;0.40;;;0.30;;
21142;SDS011;66437;46.908;15.216;2023-01-16T11:15:17;0.40;;;0.30;;
21142;SDS011;66437;46.908;15.216;2023-01-16T11:18:02;0.43;;;0.43;;
21142;SDS011;66437;46.908;15.216;2023-01-16T11:20:46;0.80;;;0.40;;
21142;SDS011;66437;46.908;15.216;2023-01-16T11:23:19;0.60;;;0.50;;
21142;SDS011;66437;46.908;15.216;2023-01-16T11:25:45;0.40;;;0.40;;
21142;SDS011;66437;46.908;15.216;2023-01-16T11:28:12;0.40;;;0.30;;
21142;SDS011;66437;46.908;15.216;2023-01-16T11:30:42;0.30;;;0.30;;
21142;SDS011;66437;46.908;15.216;2023-01-16T11:33:15;0.50;;;0.40;;
21142;SDS011;66437;46.908;15.216;2023-01-16T11:35:44;0.40;;;0.30;;
21142;SDS011;66437;46.908;15.216;2023-01-16T11:38:12;0.40;;;0.30;;
21142;SDS011;66437;46.908;15.216;2023-01-16T11:40:44;0.50;;;0.40;;
21142;SDS011;66437;46.908;15.216;2023-01-16T11:43:14;1.03;;;0.50;;
21142;SDS011;66437;46.908;15.216;2023-01-16T11:45:58;0.40;;;0.40;;
21142;SDS011;66437;46.908;15.216;2023-01-16T11:48:41;0.47;;;0.30;;
21142;SDS011;66437;46.908;15.216;2023-01-16T11:51:11;0.40;;;0.30;;
21142;SDS011;66437;46.908;15.216;2023-01-16T11:53:37;0.57;;;0.40;;
21142;SDS011;66437;46.908;15.216;2023-01-16T11:56:07;0.80;;;0.30;;
21142;SDS011;66437;46.908;15.216;2023-01-16T12:01:13;0.57;;;0.50;;
21142;SDS011;66437;46.908;15.216;2023-01-16T12:04:13;0.50;;;0.50;;
21142;SDS011;66437;46.908;15.216;2023-01-16T12:09:06;0.40;;;0.40;;
21142;SDS011;66437;46.908;15.216;2023-01-16T12:14:27;0.50;;;0.40;;
21142;SDS011;66437;46.908;15.216;2023-01-16T12:24:50;0.90;;;0.70;;
21142;SDS011;66437;46.908;15.216;2023-01-16T12:27:27;0.80;;;0.70;;
21142;SDS011;66437;46.908;15.216;2023-01-16T12:32:22;0.63;;;0.60;;
21142;SDS011;66437;46.908;15.216;2023-01-16T12:37:51;0.70;;;0.70;;
21142;SDS011;66437;46.908;15.216;2023-01-16T12:40:28;0.97;;;0.97;;
21142;SDS011;66437;46.908;15.216;2023-01-16T12:45:47;1.00;;;0.93;;
21142;SDS011;66437;46.908;15.216;2023-01-16T12:48:27;0.70;;;0.70;;
21142;SDS011;66437;46.908;15.216;2023-01-16T12:58:40;1.47;;;1.17;;
21142;SDS011;66437;46.908;15.216;2023-01-16T13:01:18;1.07;;;0.97;;
21142;SDS011;66437;46.908;15.216;2023-01-16T13:03:48;0.70;;;0.70;;
21142;SDS011;66437;46.908;15.216;2023-01-16T13:06:22;1.10;;;1.00;;
21142;SDS011;66437;46.908;15.216;2023-01-16T13:08:49;1.60;;;1.20;;
21142;SDS011;66437;46.908;15.216;2023-01-16T13:11:25;0.90;;;0.90;;
21142;SDS011;66437;46.908;15.216;2023-01-16T13:14:10;1.10;;;0.97;;
21142;SDS011;66437;46.908;15.216;2023-01-16T13:16:38;1.40;;;1.03;;
21142;SDS011;66437;46.908;15.216;2023-01-16T13:19:14;1.43;;;1.10;;
21142;SDS011;66437;46.908;15.216;2023-01-16T13:24:34;1.00;;;0.80;;
21142;SDS011;66437;46.908;15.216;2023-01-16T13:27:07;0.80;;;0.80;;
21142;SDS011;66437;46.908;15.216;2023-01-16T13:29:39;0.80;;;0.80;;
21142;SDS011;66437;46.908;15.216;2023-01-16T13:32:49;1.03;;;0.93;;
21142;SDS011;66437;46.908;15.216;2023-01-16T13:35:01;1.00;;;1.00;;
21142;SDS011;66437;46.908;15.216;2023-01-16T13:42:50;1.10;;;1.00;;
21142;SDS011;66437;46.908;15.216;2023-01-16T13:45:18;1.17;;;1.07;;
21142;SDS011;66437;46.908;15.216;2023-01-16T13:48:06;1.33;;;1.20;;
21142;SDS011;66437;46.908;15.216;2023-01-16T13:50:31;1.27;;;1.17;;
21142;SDS011;66437;46.908;15.216;2023-01-16T13:53:01;1.30;;;1.20;;
21142;SDS011;66437;46.908;15.216;2023-01-16T13:55:31;2.50;;;1.53;;
21142;SDS011;66437;46.908;15.216;2023-01-16T14:00:41;1.70;;;1.53;;
21142;SDS011;66437;46.908;15.216;2023-01-16T14:03:23;1.43;;;1.30;;
21142;SDS011;66437;46.908;15.216;2023-01-16T14:05:53;1.40;;;1.30;;
21142;SDS011;66437;46.908;15.216;2023-01-16T14:08:44;1.33;;;1.23;;
21142;SDS011;66437;46.908;15.216;2023-01-16T14:14:28;1.87;;;1.37;;
21142;SDS011;66437;46.908;15.216;2023-01-16T14:17:13;1.47;;;1.30;;
21142;SDS011;66437;46.908;15.216;2023-01-16T14:19:52;1.47;;;1.37;;
21142;SDS011;66437;46.908;15.216;2023-01-16T14:22:40;1.37;;;1.27;;
21142;SDS011;66437;46.908;15.216;2023-01-16T14:25:04;1.40;;;1.30;;
21142;SDS011;66437;46.908;15.216;2023-01-16T14:27:34;2.27;;;1.30;;
21142;SDS011;66437;46.908;15.216;2023-01-16T14:30:00;1.30;;;1.20;;
21142;SDS011;66437;46.908;15.216;2023-01-16T14:32:27;1.40;;;1.27;;
21142;SDS011;66437;46.908;15.216;2023-01-16T14:34:54;1.50;;;1.33;;
21142;SDS011;66437;46.908;15.216;2023-01-16T14:37:21;1.40;;;1.30;;
21142;SDS011;66437;46.908;15.216;2023-01-16T14:39:49;1.50;;;1.40;;
21142;SDS011;66437;46.908;15.216;2023-01-16T14:42:19;1.30;;;1.20;;
21142;SDS011;66437;46.908;15.216;2023-01-16T14:50:44;1.70;;;1.53;;
21142;SDS011;66437;46.908;15.216;2023-01-16T14:53:34;1.50;;;1.40;;
21142;SDS011;66437;46.908;15.216;2023-01-16T14:58:54;1.80;;;1.70;;
21142;SDS011;66437;46.908;15.216;2023-01-16T15:01:24;1.60;;;1.50;;
21142;SDS011;66437;46.908;15.216;2023-01-16T15:04:09;1.47;;;1.37;;
21142;SDS011;66437;46.908;15.216;2023-01-16T15:06:38;1.80;;;1.50;;
21142;SDS011;66437;46.908;15.216;2023-01-16T15:09:05;1.50;;;1.37;;
21142;SDS011;66437;46.908;15.216;2023-01-16T15:11:37;2.30;;;1.80;;
21142;SDS011;66437;46.908;15.216;2023-01-16T15:14:10;1.37;;;1.27;;
21142;SDS011;66437;46.908;15.216;2023-01-16T15:16:54;1.67;;;1.57;;
21142;SDS011;66437;46.908;15.216;2023-01-16T15:19:53;1.50;;;1.40;;
21142;SDS011;66437;46.908;15.216;2023-01-16T15:22:42;2.33;;;1.80;;
21142;SDS011;66437;46.908;15.216;2023-01-16T15:27:50;1.70;;;1.60;;
21142;SDS011;66437;46.908;15.216;2023-01-16T15:30:17;2.07;;;1.87;;
21142;SDS011;66437;46.908;15.216;2023-01-16T15:32:56;1.60;;;1.50;;
21142;SDS011;66437;46.908;15.216;2023-01-16T15:35:41;1.73;;;1.63;;
21142;SDS011;66437;46.908;15.216;2023-01-16T15:38:08;1.50;;;1.40;;
21142;SDS011;66437;46.908;15.216;2023-01-16T15:40:34;1.70;;;1.60;;
21142;SDS011;66437;46.908;15.216;2023-01-16T15:42:59;2.20;;;2.00;;
21142;SDS011;66437;46.908;15.216;2023-01-16T15:45:46;2.40;;;1.87;;
21142;SDS011;66437;46.908;15.216;2023-01-16T15:51:05;2.77;;;2.00;;
21142;SDS011;66437;46.908;15.216;2023-01-16T15:53:42;1.57;;;1.43;;
21142;SDS011;66437;46.908;15.216;2023-01-16T15:56:55;1.60;;;1.50;;
21142;SDS011;66437;46.908;15.216;2023-01-16T15:59:22;2.67;;;1.97;;
21142;SDS011;66437;46.908;15.216;2023-01-16T16:01:48;1.57;;;1.47;;
21142;SDS011;66437;46.908;15.216;2023-01-16T16:04:13;2.03;;;1.83;;
21142;SDS011;66437;46.908;15.216;2023-01-16T16:06:39;1.70;;;1.60;;
21142;SDS011;66437;46.908;15.216;2023-01-16T16:09:06;2.43;;;1.73;;
21142;SDS011;66437;46.908;15.216;2023-01-16T16:11:34;1.80;;;1.70;;
21142;SDS011;66437;46.908;15.216;2023-01-16T16:17:24;1.93;;;1.83;;
21142;SDS011;66437;46.908;15.216;2023-01-16T16:22:53;2.13;;;1.67;;
21142;SDS011;66437;46.908;15.216;2023-01-16T16:25:32;2.23;;;2.10;;
21142;SDS011;66437;46.908;15.216;2023-01-16T16:27:58;2.00;;;1.80;;
21142;SDS011;66437;46.908;15.216;2023-01-16T16:30:24;2.27;;;2.07;;
21142;SDS011;66437;46.908;15.216;2023-01-16T16:32:50;2.77;;;1.87;;
21142;SDS011;66437;46.908;15.216;2023-01-16T16:35:18;2.80;;;2.53;;
21142;SDS011;66437;46.908;15.216;2023-01-16T16:37:45;2.30;;;2.10;;
21142;SDS011;66437;46.908;15.216;2023-01-16T16:40:14;3.03;;;2.20;;
21142;SDS011;66437;46.908;15.216;2023-01-16T16:47:35;2.60;;;2.40;;
21142;SDS011;66437;46.908;15.216;2023-01-16T16:50:01;2.33;;;2.13;;
21142;SDS011;66437;46.908;15.216;2023-01-16T16:52:30;2.10;;;2.00;;
21142;SDS011;66437;46.908;15.216;2023-01-16T16:54:58;2.50;;;2.17;;